createdAt,value
2023-04-27T00:00:51.312Z,4.32
2023-04-27T00:03:18.689Z,3.50
2023-04-27T00:05:46.530Z,4.53
2023-04-27T00:08:16.512Z,4.57
2023-04-27T00:10:48.159Z,3.30
2023-04-27T00:13:16.057Z,3.50
2023-04-27T00:15:45.466Z,4.07
2023-04-27T00:18:16.099Z,3.88
2023-04-27T00:20:50.493Z,4.60
2023-04-27T00:23:21.021Z,3.95
2023-04-27T00:25:50.866Z,3.78
2023-04-27T00:28:18.382Z,4.13
2023-04-27T00:30:46.664Z,4.80
2023-04-27T00:33:13.880Z,3.95
2023-04-27T00:35:41.600Z,4.35
2023-04-27T00:38:10.327Z,5.55
2023-04-27T00:40:42.571Z,5.70
2023-04-27T00:43:10.242Z,5.43
2023-04-27T00:45:43.335Z,6.50
2023-04-27T00:48:17.774Z,6.78
2023-04-27T00:50:45.591Z,7.35
2023-04-27T00:53:13.438Z,6.18
2023-04-27T00:55:42.448Z,6.70
2023-04-27T00:58:12.607Z,6.40
2023-04-27T01:00:40.389Z,6.57
2023-04-27T01:03:08.615Z,7.10
2023-04-27T01:05:38.077Z,6.97
2023-04-27T01:08:05.694Z,5.25
2023-04-27T01:10:33.026Z,4.65
2023-04-27T01:13:00.202Z,6.00
2023-04-27T01:15:27.696Z,6.22
2023-04-27T01:17:59.432Z,5.10
2023-04-27T01:20:32.484Z,6.20
2023-04-27T01:23:00.117Z,5.23
2023-04-27T01:25:27.358Z,5.05
2023-04-27T01:27:54.915Z,5.07
2023-04-27T01:30:25.328Z,3.92
2023-04-27T01:32:52.440Z,5.00
2023-04-27T01:35:19.978Z,5.65
2023-04-27T01:37:47.352Z,6.20
2023-04-27T01:40:15.045Z,7.75
2023-04-27T01:42:42.284Z,5.95
2023-04-27T01:45:10.581Z,5.97
2023-04-27T01:47:38.254Z,6.03
2023-04-27T01:50:06.365Z,5.93
2023-04-27T01:52:33.538Z,6.50
2023-04-27T01:55:03.169Z,6.35
2023-04-27T01:57:31.055Z,6.93
2023-04-27T01:59:58.221Z,5.85
2023-04-27T02:02:25.669Z,7.75
2023-04-27T02:04:52.979Z,6.32
2023-04-27T02:07:20.186Z,6.20
2023-04-27T02:09:47.414Z,7.03
2023-04-27T02:12:14.599Z,7.15
2023-04-27T02:14:41.734Z,7.32
2023-04-27T02:17:08.938Z,8.63
2023-04-27T02:19:36.513Z,8.30
2023-04-27T02:22:04.155Z,8.30
2023-04-27T02:24:31.348Z,7.30
2023-04-27T02:26:58.458Z,8.48
2023-04-27T02:29:30.506Z,7.30
2023-04-27T02:31:58.335Z,6.40
2023-04-27T02:34:25.472Z,5.88
2023-04-27T02:36:53.333Z,6.80
2023-04-27T02:39:20.413Z,5.85
2023-04-27T02:41:47.536Z,4.93
2023-04-27T02:44:15.872Z,6.03
2023-04-27T02:46:43.111Z,5.32
2023-04-27T02:49:10.294Z,6.40
2023-04-27T02:51:37.377Z,7.47
2023-04-27T02:54:04.713Z,8.40
2023-04-27T02:56:31.970Z,7.68
2023-04-27T02:58:59.249Z,8.18
2023-04-27T03:01:26.604Z,8.75
2023-04-27T03:03:54.048Z,8.52
2023-04-27T03:06:21.372Z,8.50
2023-04-27T03:08:48.524Z,7.85
2023-04-27T03:11:15.729Z,6.97
2023-04-27T03:13:42.902Z,7.15
2023-04-27T03:16:13.719Z,7.75
2023-04-27T03:18:41.132Z,8.45
2023-04-27T03:21:12.204Z,7.60
2023-04-27T03:23:40.089Z,9.45
2023-04-27T03:26:08.705Z,7.85
2023-04-27T03:28:36.499Z,8.13
2023-04-27T03:31:07.711Z,7.45
2023-04-27T03:33:35.006Z,8.05
2023-04-27T03:36:02.650Z,7.50
2023-04-27T03:38:30.051Z,7.57
2023-04-27T03:40:57.931Z,7.35
2023-04-27T03:43:26.310Z,8.02
2023-04-27T03:45:53.508Z,8.77
2023-04-27T03:48:21.797Z,8.43
2023-04-27T03:50:50.168Z,9.10
2023-04-27T03:53:17.274Z,9.90
2023-04-27T03:55:45.309Z,9.05
2023-04-27T03:58:12.798Z,9.57
2023-04-27T04:00:52.744Z,9.82
2023-04-27T04:03:20.125Z,9.85
2023-04-27T04:05:47.748Z,10.50
2023-04-27T04:08:15.071Z,9.02
2023-04-27T04:10:42.367Z,8.10
2023-04-27T04:13:10.634Z,9.18
2023-04-27T04:15:37.959Z,9.27
2023-04-27T04:18:05.259Z,9.50
2023-04-27T04:20:34.501Z,8.43
2023-04-27T04:23:01.665Z,10.00
2023-04-27T04:25:28.839Z,9.23
2023-04-27T04:27:56.169Z,9.63
2023-04-27T04:30:23.622Z,9.68
2023-04-27T04:32:50.781Z,9.15
2023-04-27T04:35:19.732Z,9.68
2023-04-27T04:37:47.167Z,9.40
2023-04-27T04:40:14.572Z,10.27
2023-04-27T04:42:42.411Z,8.80
2023-04-27T04:45:10.754Z,11.57
2023-04-27T04:47:38.024Z,9.60
2023-04-27T04:50:05.694Z,12.30
2023-04-27T04:52:33.678Z,12.65
2023-04-27T04:55:01.043Z,12.10
2023-04-27T04:57:28.199Z,10.77
2023-04-27T04:59:55.418Z,11.98
2023-04-27T05:02:22.714Z,12.98
2023-04-27T05:04:52.344Z,13.82
2023-04-27T05:07:24.144Z,12.18
2023-04-27T05:09:52.360Z,13.93
2023-04-27T05:12:19.542Z,13.30
2023-04-27T05:14:46.721Z,14.07
2023-04-27T05:17:13.929Z,13.95
2023-04-27T05:19:41.095Z,14.18
2023-04-27T05:22:08.281Z,13.88
2023-04-27T05:24:35.446Z,13.98
2023-04-27T05:27:02.788Z,13.70
2023-04-27T05:29:30.041Z,13.75
2023-04-27T05:31:57.402Z,15.15
2023-04-27T05:34:24.656Z,14.88
2023-04-27T05:36:51.795Z,13.60
2023-04-27T05:39:18.983Z,15.60
2023-04-27T05:41:46.313Z,16.35
2023-04-27T05:44:14.138Z,16.00
2023-04-27T05:46:41.265Z,16.77
2023-04-27T05:49:08.460Z,18.38
2023-04-27T05:51:35.768Z,17.30
2023-04-27T05:54:02.860Z,18.98
2023-04-27T05:56:30.082Z,17.77
2023-04-27T05:58:57.235Z,16.65
2023-04-27T06:01:24.338Z,17.45
2023-04-27T06:03:51.693Z,18.15
2023-04-27T06:06:18.919Z,18.35
2023-04-27T06:08:46.321Z,20.55
2023-04-27T06:11:13.518Z,16.75
2023-04-27T06:13:40.704Z,17.95
2023-04-27T06:16:08.257Z,17.77
2023-04-27T06:18:35.477Z,16.73
2023-04-27T06:21:02.696Z,16.90
2023-04-27T06:23:29.849Z,16.05
2023-04-27T06:25:57.274Z,16.40
2023-04-27T06:28:24.406Z,16.75
2023-04-27T06:30:51.482Z,18.80
2023-04-27T06:33:18.602Z,16.15
2023-04-27T06:35:47.406Z,17.50
2023-04-27T06:38:14.800Z,16.33
2023-04-27T06:40:42.029Z,14.88
2023-04-27T06:43:09.096Z,15.43
2023-04-27T06:45:36.673Z,16.10
2023-04-27T06:48:03.996Z,16.00
2023-04-27T06:50:31.299Z,15.88
2023-04-27T06:52:58.492Z,16.45
2023-04-27T06:55:25.793Z,15.80
2023-04-27T06:57:52.898Z,16.17
2023-04-27T07:00:20.284Z,15.13
2023-04-27T07:02:47.732Z,16.08
2023-04-27T07:05:17.765Z,14.15
2023-04-27T07:07:45.014Z,15.77
2023-04-27T07:10:12.162Z,14.63
2023-04-27T07:12:42.238Z,15.75
2023-04-27T07:15:10.002Z,13.45
2023-04-27T07:17:37.310Z,14.63
2023-04-27T07:20:06.438Z,13.35
2023-04-27T07:22:33.892Z,16.17
2023-04-27T07:25:01.070Z,15.45
2023-04-27T07:27:28.264Z,14.00
2023-04-27T07:29:55.377Z,12.18
2023-04-27T07:32:23.212Z,12.93
2023-04-27T07:34:56.012Z,12.15
2023-04-27T07:37:24.162Z,13.50
2023-04-27T07:39:54.509Z,11.77
2023-04-27T07:42:25.207Z,10.43
2023-04-27T07:44:52.693Z,10.43
2023-04-27T07:47:20.025Z,11.43
2023-04-27T07:49:47.243Z,12.52
2023-04-27T07:52:14.950Z,10.55
2023-04-27T07:54:42.201Z,12.40
2023-04-27T07:57:13.792Z,11.32
2023-04-27T07:59:41.073Z,10.68
2023-04-27T08:02:18.984Z,9.48
2023-04-27T08:04:48.414Z,11.07
2023-04-27T08:07:17.576Z,10.80
2023-04-27T08:09:45.166Z,11.23
2023-04-27T08:12:12.354Z,11.13
2023-04-27T08:14:39.588Z,10.20
2023-04-27T08:17:07.054Z,9.90
2023-04-27T09:10:18.017Z,8.30
2023-04-27T09:13:01.189Z,8.98
2023-04-27T09:15:28.922Z,9.30
2023-04-27T09:17:57.639Z,8.88
2023-04-27T09:20:27.052Z,10.02
2023-04-27T09:22:55.588Z,8.25
2023-04-27T09:25:31.467Z,6.63
2023-04-27T09:28:00.200Z,9.55
2023-04-27T09:30:28.772Z,7.82
2023-04-27T09:33:03.804Z,8.65
2023-04-27T09:35:33.361Z,6.95
2023-04-27T09:38:01.308Z,9.60
2023-04-27T09:40:31.291Z,9.20
2023-04-27T09:43:03.422Z,8.27
2023-04-27T09:45:31.323Z,9.23
2023-04-27T09:47:58.941Z,8.80
2023-04-27T09:50:26.255Z,9.10
2023-04-27T09:52:53.428Z,8.55
2023-04-27T09:55:25.649Z,7.82
2023-04-27T09:58:11.481Z,8.77
2023-04-27T10:01:24.195Z,8.27
2023-04-27T10:04:11.803Z,8.40
2023-04-27T10:06:57.927Z,7.57
2023-04-27T10:09:30.523Z,7.65
2023-04-27T10:12:12.963Z,6.32
2023-04-27T10:14:56.008Z,8.05
2023-04-27T10:17:31.388Z,7.32
2023-04-27T10:20:00.796Z,6.63
2023-04-27T10:22:40.725Z,6.50
2023-04-27T10:25:38.257Z,5.82
2023-04-27T10:28:08.204Z,7.25
2023-04-27T10:30:38.783Z,7.47
2023-04-27T10:33:10.770Z,5.55
2023-04-27T10:35:40.156Z,4.85
2023-04-27T10:38:17.569Z,5.95
2023-04-27T10:41:01.544Z,5.50
2023-04-27T10:43:31.317Z,5.82
2023-04-27T10:46:12.811Z,6.28
2023-04-27T10:48:41.659Z,6.55
2023-04-27T10:51:09.298Z,5.18
2023-04-27T10:53:37.780Z,5.85
2023-04-27T10:56:08.224Z,5.15
2023-04-27T10:58:48.300Z,5.22
2023-04-27T11:01:27.369Z,4.75
2023-04-27T11:04:02.111Z,4.93
2023-04-27T11:06:30.593Z,4.95
2023-04-27T11:08:57.950Z,5.50
2023-04-27T11:11:26.362Z,5.57
2023-04-27T11:13:53.569Z,4.93
2023-04-27T11:16:20.888Z,5.30
2023-04-27T11:18:48.228Z,6.05
2023-04-27T11:21:17.615Z,5.28
2023-04-27T11:23:44.903Z,4.28
2023-04-27T11:26:17.831Z,4.57
2023-04-27T11:28:58.051Z,4.20
2023-04-27T11:31:26.305Z,4.97
2023-04-27T11:33:56.116Z,5.20
2023-04-27T11:36:24.431Z,4.38
2023-04-27T11:38:57.397Z,4.90
2023-04-27T11:41:36.887Z,4.97
2023-04-27T11:44:09.170Z,3.78
2023-04-27T11:49:11.063Z,4.03
2023-04-27T11:51:40.703Z,4.60
2023-04-27T11:54:09.833Z,4.18
2023-04-27T11:56:37.843Z,3.88
2023-04-27T11:59:05.677Z,4.85
2023-04-27T12:01:37.998Z,4.50
2023-04-27T12:04:05.930Z,5.22
2023-04-27T12:06:33.836Z,4.55
2023-04-27T12:09:01.382Z,4.47
2023-04-27T12:11:28.757Z,4.47
2023-04-27T12:13:56.940Z,4.10
2023-04-27T12:16:24.260Z,4.28
2023-04-27T12:18:51.853Z,4.57
2023-04-27T12:21:19.244Z,4.47
2023-04-27T12:23:46.561Z,5.63
2023-04-27T12:26:15.393Z,4.10
2023-04-27T12:28:42.706Z,5.53
2023-04-27T12:31:16.448Z,4.43
2023-04-27T12:33:43.659Z,4.78
2023-04-27T12:36:10.747Z,5.15
2023-04-27T12:38:37.938Z,4.55
2023-04-27T12:41:05.154Z,4.15
2023-04-27T12:43:32.451Z,4.20
2023-04-27T12:45:59.602Z,4.47
2023-04-27T12:48:26.862Z,5.18
2023-04-27T12:50:54.038Z,4.65
2023-04-27T12:53:21.888Z,4.90
2023-04-27T12:55:49.187Z,4.95
2023-04-27T12:58:16.367Z,4.38
2023-04-27T13:00:43.568Z,5.35
2023-04-27T13:03:11.380Z,5.10
2023-04-27T13:05:38.706Z,4.78
2023-04-27T13:08:05.901Z,5.80
2023-04-27T13:10:33.057Z,5.22
2023-04-27T13:13:00.258Z,4.07
2023-04-27T13:15:28.518Z,4.53
2023-04-27T13:17:56.776Z,4.45
2023-04-27T13:20:23.922Z,4.72
2023-04-27T13:22:51.105Z,5.03
2023-04-27T13:25:19.948Z,4.43
2023-04-27T13:27:47.282Z,4.57
2023-04-27T13:30:14.548Z,4.00
2023-04-27T13:32:41.847Z,4.72
2023-04-27T13:35:09.284Z,4.65
2023-04-27T13:37:36.643Z,4.55
2023-04-27T13:40:06.606Z,4.38
2023-04-27T13:42:33.763Z,4.68
2023-04-27T13:45:02.038Z,4.22
2023-04-27T13:47:30.107Z,3.83
2023-04-27T13:49:57.263Z,4.25
2023-04-27T13:52:24.380Z,4.00
2023-04-27T13:54:51.514Z,4.68
2023-04-27T13:57:18.721Z,4.78
2023-04-27T13:59:45.824Z,5.00
2023-04-27T14:02:13.202Z,4.65
2023-04-27T14:04:40.538Z,5.07
2023-04-27T14:07:07.691Z,5.30
2023-04-27T14:09:34.808Z,5.90
2023-04-27T14:12:02.767Z,5.45
2023-04-27T14:14:29.909Z,6.15
2023-04-27T14:16:57.705Z,5.68
2023-04-27T14:19:25.614Z,6.13
2023-04-27T14:21:53.230Z,6.55
2023-04-27T14:24:20.756Z,6.75
2023-04-27T14:26:54.289Z,7.68
2023-04-27T14:29:21.624Z,7.18
2023-04-27T14:31:48.977Z,5.47
2023-04-27T14:34:16.255Z,6.35
2023-04-27T14:36:43.540Z,7.15
2023-04-27T14:39:10.827Z,5.88
2023-04-27T14:41:38.016Z,5.75
2023-04-27T14:44:08.184Z,5.38
2023-04-27T14:46:35.529Z,5.70
2023-04-27T14:49:02.718Z,7.05
2023-04-27T14:51:29.939Z,7.32
2023-04-27T14:53:57.275Z,7.53
2023-04-27T14:56:24.783Z,6.40
2023-04-27T14:58:52.009Z,6.25
2023-04-27T15:01:19.232Z,5.70
2023-04-27T15:03:46.688Z,6.78
2023-04-27T15:06:14.012Z,6.93
2023-04-27T15:08:41.070Z,7.50
2023-04-27T15:11:08.202Z,5.75
2023-04-27T15:13:35.673Z,6.00
2023-04-27T15:16:04.890Z,5.30
2023-04-27T15:18:32.297Z,6.25
2023-04-27T15:21:00.099Z,5.93
2023-04-27T15:23:27.904Z,6.72
2023-04-27T15:25:56.923Z,6.63
2023-04-27T15:28:24.081Z,6.75
2023-04-27T15:30:51.474Z,7.13
2023-04-27T15:33:18.933Z,6.55
2023-04-27T15:35:46.325Z,8.27
2023-04-27T15:38:15.152Z,6.47
2023-04-27T15:40:42.314Z,7.47
2023-04-27T15:43:09.499Z,7.55
2023-04-27T15:45:36.669Z,7.15
2023-04-27T15:48:04.327Z,6.97
2023-04-27T15:50:31.567Z,6.85
2023-04-27T15:52:58.702Z,7.43
2023-04-27T15:55:25.963Z,7.00
2023-04-27T15:57:53.677Z,8.07
2023-04-27T16:00:22.467Z,7.72
2023-04-27T16:02:50.930Z,6.95
2023-04-27T16:05:18.150Z,7.05
2023-04-27T16:07:46.093Z,7.22
2023-04-27T16:10:13.856Z,6.47
2023-04-27T16:12:41.301Z,7.07
2023-04-27T16:15:11.226Z,10.55
2023-04-27T16:17:38.941Z,7.93
2023-04-27T16:20:07.171Z,8.45
2023-04-27T16:22:35.166Z,9.07
2023-04-27T16:25:02.613Z,9.38
2023-04-27T16:27:29.998Z,9.23
2023-04-27T16:29:57.145Z,8.60
2023-04-27T16:32:24.495Z,9.13
2023-04-27T16:34:51.674Z,11.82
2023-04-27T16:37:19.012Z,9.95
2023-04-27T16:39:46.517Z,10.68
2023-04-27T16:42:18.648Z,10.07
2023-04-27T16:44:46.372Z,10.27
2023-04-27T16:47:13.473Z,10.18
2023-04-27T16:49:42.361Z,9.55
2023-04-27T16:52:09.757Z,11.55
2023-04-27T16:54:37.147Z,11.10
2023-04-27T16:57:04.488Z,10.13
2023-04-27T16:59:31.811Z,10.20
2023-04-27T17:02:08.993Z,11.18
2023-04-27T17:04:43.987Z,10.80
2023-04-27T17:07:11.415Z,12.23
2023-04-27T17:09:38.723Z,10.63
2023-04-27T17:12:11.137Z,10.55
2023-04-27T17:14:39.246Z,10.90
2023-04-27T17:17:07.250Z,12.18
2023-04-27T17:19:34.619Z,10.98
2023-04-27T17:22:01.815Z,12.32
2023-04-27T17:24:29.082Z,10.55
2023-04-27T17:26:56.203Z,11.45
2023-04-27T17:29:23.364Z,10.68
2023-04-27T17:31:50.705Z,11.65
2023-04-27T17:34:18.050Z,11.10
2023-04-27T17:36:46.236Z,10.73
2023-04-27T17:39:14.162Z,12.65
2023-04-27T17:41:41.831Z,10.80
2023-04-27T17:44:08.958Z,11.40
2023-04-27T17:46:37.666Z,14.07
2023-04-27T17:49:04.803Z,10.88
2023-04-27T17:51:34.270Z,10.65
2023-04-27T17:54:01.628Z,13.75
2023-04-27T17:56:28.872Z,11.30
2023-04-27T17:58:56.104Z,11.70
2023-04-27T18:01:23.306Z,10.85
2023-04-27T18:03:51.671Z,10.77
2023-04-27T18:06:21.867Z,12.98
2023-04-27T18:08:49.692Z,16.02
2023-04-27T18:11:16.999Z,12.80
2023-04-27T18:13:45.375Z,12.98
2023-04-27T18:16:12.510Z,10.25
2023-04-27T18:18:39.687Z,10.57
2023-04-27T18:21:06.939Z,10.00
2023-04-27T18:23:41.284Z,11.35
2023-04-27T18:26:11.074Z,13.48
2023-04-27T18:28:40.221Z,11.30
2023-04-27T18:31:14.740Z,12.23
2023-04-27T18:33:42.787Z,12.77
2023-04-27T18:36:10.002Z,13.88
2023-04-27T18:38:37.186Z,11.20
2023-04-27T18:41:04.908Z,13.23
2023-04-27T18:43:35.754Z,13.05
2023-04-27T18:46:03.964Z,11.82
2023-04-27T18:48:32.379Z,11.20
2023-04-27T18:50:59.574Z,12.43
2023-04-27T18:53:27.859Z,12.40
2023-04-27T18:55:55.166Z,12.50
2023-04-27T18:58:22.243Z,11.52
2023-04-27T19:00:49.455Z,10.98
2023-04-27T19:03:16.799Z,11.38
2023-04-27T19:05:44.157Z,11.38
2023-04-27T19:08:11.596Z,11.68
2023-04-27T19:10:41.306Z,11.27
2023-04-27T19:13:08.506Z,12.57
2023-04-27T19:15:35.652Z,13.07
2023-04-27T19:18:10.384Z,12.95
2023-04-27T19:20:39.423Z,13.45
2023-04-27T19:23:12.318Z,14.70
2023-04-27T19:25:40.475Z,11.73
2023-04-27T19:28:07.964Z,12.82
2023-04-27T19:30:35.137Z,14.38
2023-04-27T19:33:02.419Z,12.50
2023-04-27T19:35:30.357Z,13.60
2023-04-27T19:37:57.583Z,12.93
2023-04-27T19:40:24.915Z,14.73
2023-04-27T19:42:52.026Z,13.65
2023-04-27T19:45:19.223Z,13.45
2023-04-27T19:47:46.715Z,15.32
2023-04-27T19:50:13.933Z,14.85
2023-04-27T19:52:41.188Z,14.40
2023-04-27T19:55:09.137Z,16.75
2023-04-27T19:57:36.541Z,16.35
2023-04-27T20:00:10.304Z,15.90
2023-04-27T20:02:43.426Z,14.95
2023-04-27T20:05:11.585Z,14.18
2023-04-27T20:07:38.781Z,18.25
2023-04-27T20:10:06.484Z,15.77
2023-04-27T20:12:47.481Z,15.45
2023-04-27T20:15:21.138Z,13.73
2023-04-27T20:17:49.312Z,13.90
2023-04-27T20:20:16.772Z,14.02
2023-04-27T20:22:43.889Z,12.70
2023-04-27T20:25:13.999Z,11.52
2023-04-27T20:27:41.368Z,13.43
2023-04-27T20:30:09.203Z,12.05
2023-04-27T20:32:36.490Z,11.15
2023-04-27T20:35:04.459Z,11.23
2023-04-27T20:37:32.387Z,11.95
2023-04-27T20:40:00.906Z,9.75
2023-04-27T20:42:29.689Z,10.73
2023-04-27T20:44:56.936Z,9.13
2023-04-27T20:47:24.104Z,9.30
2023-04-27T20:49:51.358Z,8.65
2023-04-27T20:52:18.502Z,8.48
2023-04-27T20:54:45.684Z,8.27
2023-04-27T20:57:14.368Z,8.90
2023-04-27T20:59:41.805Z,7.15
2023-04-27T21:02:09.086Z,6.50
2023-04-27T21:04:36.477Z,7.72
2023-04-27T21:07:03.869Z,7.22
2023-04-27T21:09:31.516Z,6.53
2023-04-27T21:11:58.752Z,6.05
2023-04-27T21:14:26.029Z,6.63
2023-04-27T21:16:53.354Z,6.35
2023-04-27T21:19:20.696Z,5.43
2023-04-27T21:21:47.863Z,5.55
2023-04-27T21:24:15.080Z,4.95
2023-04-27T21:26:42.416Z,4.93
2023-04-27T21:29:09.660Z,4.32
2023-04-27T21:31:37.026Z,4.45
2023-04-27T21:34:04.644Z,4.43
2023-04-27T21:36:32.295Z,4.10
2023-04-27T21:38:59.470Z,4.22
2023-04-27T21:41:26.816Z,4.07
2023-04-27T21:43:54.091Z,4.55
2023-04-27T21:46:23.074Z,3.70
2023-04-27T21:48:50.308Z,3.53
2023-04-27T21:51:17.495Z,3.08
2023-04-27T21:53:44.619Z,3.78
2023-04-27T21:56:11.874Z,3.05
2023-04-27T21:58:38.969Z,3.25
2023-04-27T22:01:06.038Z,3.08
2023-04-27T22:03:33.364Z,2.67
2023-04-27T22:06:00.677Z,3.38
2023-04-27T22:08:27.956Z,2.70
2023-04-27T22:10:55.776Z,2.88
2023-04-27T22:13:22.976Z,2.88
2023-04-27T22:15:50.154Z,2.83
2023-04-27T22:18:17.328Z,2.67
2023-04-27T22:20:44.659Z,2.92
2023-04-27T22:23:12.160Z,2.40
2023-04-27T22:25:42.580Z,1.95
2023-04-27T22:28:11.083Z,2.35
2023-04-27T22:30:40.735Z,2.30
2023-04-27T22:33:08.916Z,2.70
2023-04-27T22:35:37.106Z,2.80
2023-04-27T22:38:04.447Z,2.30
2023-04-27T22:40:31.691Z,2.47
2023-04-27T22:42:58.813Z,1.92
2023-04-27T22:45:26.036Z,2.35
2023-04-27T22:47:54.071Z,1.77
2023-04-27T22:50:21.425Z,2.15
2023-04-27T22:52:48.629Z,1.60
2023-04-27T22:55:16.148Z,2.53
2023-04-27T22:57:44.424Z,2.28
2023-04-27T23:00:12.444Z,2.10
2023-04-27T23:02:40.795Z,2.33
2023-04-27T23:05:09.247Z,2.30
2023-04-27T23:07:37.165Z,2.20
2023-04-27T23:10:04.945Z,1.70
2023-04-27T23:12:32.513Z,2.00
2023-04-27T23:14:59.892Z,1.65
2023-04-27T23:17:33.058Z,2.15
2023-04-27T23:20:01.931Z,1.67
2023-04-27T23:22:29.111Z,3.03
2023-04-27T23:24:56.382Z,1.50
2023-04-27T23:27:25.009Z,2.60
2023-04-27T23:29:52.672Z,1.55
2023-04-27T23:32:21.742Z,1.88
2023-04-27T23:34:48.928Z,1.35
2023-04-27T23:37:16.120Z,1.33
2023-04-27T23:39:43.196Z,1.90
2023-04-27T23:42:10.918Z,1.95
2023-04-27T23:44:38.562Z,1.48
2023-04-27T23:47:06.419Z,1.40
2023-04-27T23:49:33.531Z,1.60
2023-04-27T23:52:00.883Z,2.17
2023-04-27T23:54:32.176Z,1.80
2023-04-27T23:56:59.392Z,1.88
2023-04-27T23:59:26.587Z,1.75
